sensor_id;sensor_type;location;lat;lon;timestamp;pressure;altitude;pressure_sealevel;temperature;humidity
39487;BME280;25173;50.430;18.926;2023-04-23T00:01:04;97869.50;;;12.28;45.34
39487;BME280;25173;50.430;18.926;2023-04-23T00:04:07;97872.22;;;12.28;45.45
39487;BME280;25173;50.430;18.926;2023-04-23T00:07:08;97869.78;;;12.26;45.21
39487;BME280;25173;50.430;18.926;2023-04-23T00:10:09;97868.16;;;12.25;45.60
39487;BME280;25173;50.430;18.926;2023-04-23T00:13:10;97861.94;;;12.20;45.75
39487;BME280;25173;50.430;18.926;2023-04-23T00:16:11;97872.34;;;12.18;45.41
39487;BME280;25173;50.430;18.926;2023-04-23T00:19:12;97860.88;;;12.16;45.23
39487;BME280;25173;50.430;18.926;2023-04-23T00:22:13;97854.03;;;12.18;45.54
39487;BME280;25173;50.430;18.926;2023-04-23T00:25:16;97855.09;;;12.22;45.07
39487;BME280;25173;50.430;18.926;2023-04-23T00:28:16;97860.25;;;12.24;44.89
39487;BME280;25173;50.430;18.926;2023-04-23T00:31:17;97849.84;;;12.26;45.28
39487;BME280;25173;50.430;18.926;2023-04-23T00:34:18;97848.84;;;12.22;45.38
39487;BME280;25173;50.430;18.926;2023-04-23T00:37:19;97843.13;;;12.18;45.92
39487;BME280;25173;50.430;18.926;2023-04-23T00:40:20;97840.19;;;12.15;45.80
39487;BME280;25173;50.430;18.926;2023-04-23T00:43:21;97837.50;;;12.10;45.67
39487;BME280;25173;50.430;18.926;2023-04-23T00:46:23;97840.59;;;12.03;46.24
39487;BME280;25173;50.430;18.926;2023-04-23T00:49:25;97838.50;;;11.95;46.58
39487;BME280;25173;50.430;18.926;2023-04-23T00:52:26;97839.94;;;11.87;46.82
39487;BME280;25173;50.430;18.926;2023-04-23T00:55:28;97838.84;;;11.88;46.70
39487;BME280;25173;50.430;18.926;2023-04-23T00:58:29;97838.91;;;11.83;46.52
39487;BME280;25173;50.430;18.926;2023-04-23T01:01:30;97825.56;;;11.82;46.67
39487;BME280;25173;50.430;18.926;2023-04-23T01:04:33;97832.34;;;11.84;46.75
39487;BME280;25173;50.430;18.926;2023-04-23T01:07:36;97838.09;;;11.83;46.78
39487;BME280;25173;50.430;18.926;2023-04-23T01:10:37;97842.75;;;11.82;46.60
39487;BME280;25173;50.430;18.926;2023-04-23T01:13:38;97841.66;;;11.78;46.66
39487;BME280;25173;50.430;18.926;2023-04-23T01:16:39;97836.53;;;11.77;46.94
39487;BME280;25173;50.430;18.926;2023-04-23T01:19:40;97836.25;;;11.73;47.12
39487;BME280;25173;50.430;18.926;2023-04-23T01:22:41;97842.81;;;11.72;47.04
39487;BME280;25173;50.430;18.926;2023-04-23T01:25:42;97844.44;;;11.73;47.11
39487;BME280;25173;50.430;18.926;2023-04-23T01:28:43;97833.81;;;11.72;47.17
39487;BME280;25173;50.430;18.926;2023-04-23T01:31:45;97834.94;;;11.71;47.22
39487;BME280;25173;50.430;18.926;2023-04-23T01:34:46;97833.31;;;11.70;47.14
39487;BME280;25173;50.430;18.926;2023-04-23T01:37:50;97830.25;;;11.71;46.80
39487;BME280;25173;50.430;18.926;2023-04-23T01:40:52;97832.22;;;11.71;46.79
39487;BME280;25173;50.430;18.926;2023-04-23T01:43:56;97836.03;;;11.70;46.93
39487;BME280;25173;50.430;18.926;2023-04-23T01:46:56;97834.16;;;11.65;46.91
39487;BME280;25173;50.430;18.926;2023-04-23T01:49:57;97833.66;;;11.63;46.47
39487;BME280;25173;50.430;18.926;2023-04-23T01:52:58;97834.44;;;11.63;46.72
39487;BME280;25173;50.430;18.926;2023-04-23T01:55:59;97841.53;;;11.64;46.87
39487;BME280;25173;50.430;18.926;2023-04-23T01:59:00;97841.53;;;11.64;46.71
39487;BME280;25173;50.430;18.926;2023-04-23T02:02:01;97844.56;;;11.63;46.76
39487;BME280;25173;50.430;18.926;2023-04-23T02:05:03;97838.56;;;11.61;46.58
39487;BME280;25173;50.430;18.926;2023-04-23T02:08:04;97838.28;;;11.62;46.62
39487;BME280;25173;50.430;18.926;2023-04-23T02:11:04;97836.88;;;11.65;46.44
39487;BME280;25173;50.430;18.926;2023-04-23T02:14:09;97831.91;;;11.72;46.27
39487;BME280;25173;50.430;18.926;2023-04-23T02:17:09;97833.00;;;11.76;45.94
39487;BME280;25173;50.430;18.926;2023-04-23T02:20:10;97828.56;;;11.80;46.17
39487;BME280;25173;50.430;18.926;2023-04-23T02:23:11;97835.09;;;11.84;46.07
39487;BME280;25173;50.430;18.926;2023-04-23T02:26:12;97824.38;;;11.88;46.12
39487;BME280;25173;50.430;18.926;2023-04-23T02:29:13;97824.16;;;11.84;46.22
39487;BME280;25173;50.430;18.926;2023-04-23T02:32:14;97821.72;;;11.83;46.36
39487;BME280;25173;50.430;18.926;2023-04-23T02:35:14;97822.28;;;11.80;46.28
39487;BME280;25173;50.430;18.926;2023-04-23T02:38:15;97825.63;;;11.77;46.21
39487;BME280;25173;50.430;18.926;2023-04-23T02:41:16;97814.94;;;11.80;46.13
39487;BME280;25173;50.430;18.926;2023-04-23T02:44:16;97815.44;;;11.82;46.08
39487;BME280;25173;50.430;18.926;2023-04-23T02:47:17;97810.56;;;11.79;46.28
39487;BME280;25173;50.430;18.926;2023-04-23T02:50:18;97813.81;;;11.81;46.24
39487;BME280;25173;50.430;18.926;2023-04-23T02:53:19;97821.47;;;11.79;46.20
39487;BME280;25173;50.430;18.926;2023-04-23T02:56:20;97806.22;;;11.78;46.17
39487;BME280;25173;50.430;18.926;2023-04-23T02:59:20;97809.47;;;11.80;46.16
39487;BME280;25173;50.430;18.926;2023-04-23T03:02:21;97813.00;;;11.81;46.28
39487;BME280;25173;50.430;18.926;2023-04-23T03:05:22;97805.09;;;11.79;46.23
39487;BME280;25173;50.430;18.926;2023-04-23T03:08:22;97813.88;;;11.76;46.38
39487;BME280;25173;50.430;18.926;2023-04-23T03:11:23;97814.44;;;11.73;46.33
39487;BME280;25173;50.430;18.926;2023-04-23T03:14:24;97814.44;;;11.73;46.43
39487;BME280;25173;50.430;18.926;2023-04-23T03:17:24;97810.56;;;11.79;46.53
39487;BME280;25173;50.430;18.926;2023-04-23T03:20:26;97808.09;;;11.83;46.48
39487;BME280;25173;50.430;18.926;2023-04-23T03:23:27;97809.13;;;11.87;46.57
39487;BME280;25173;50.430;18.926;2023-04-23T03:26:29;97813.47;;;11.88;46.30
39487;BME280;25173;50.430;18.926;2023-04-23T03:29:29;97806.63;;;11.90;46.50
39487;BME280;25173;50.430;18.926;2023-04-23T03:32:30;97804.44;;;11.92;46.54
39487;BME280;25173;50.430;18.926;2023-04-23T03:35:31;97800.00;;;11.96;46.52
39487;BME280;25173;50.430;18.926;2023-04-23T03:38:34;97810.34;;;11.99;46.55
39487;BME280;25173;50.430;18.926;2023-04-23T03:41:37;97815.72;;;12.04;46.54
39487;BME280;25173;50.430;18.926;2023-04-23T03:44:38;97811.63;;;12.07;46.54
39487;BME280;25173;50.430;18.926;2023-04-23T03:47:39;97810.19;;;12.10;46.50
39487;BME280;25173;50.430;18.926;2023-04-23T03:50:40;97818.91;;;12.12;46.52
39487;BME280;25173;50.430;18.926;2023-04-23T03:53:57;97816.75;;;12.09;46.47
39487;BME280;25173;50.430;18.926;2023-04-23T03:57:03;97818.91;;;12.12;46.29
39487;BME280;25173;50.430;18.926;2023-04-23T04:00:09;97813.38;;;12.17;46.66
39487;BME280;25173;50.430;18.926;2023-04-23T04:03:15;97815.47;;;12.25;46.49
39487;BME280;25173;50.430;18.926;2023-04-23T04:06:16;97819.75;;;12.31;46.66
39487;BME280;25173;50.430;18.926;2023-04-23T04:09:17;97816.44;;;12.34;46.49
39487;BME280;25173;50.430;18.926;2023-04-23T04:12:18;97822.13;;;12.37;46.51
39487;BME280;25173;50.430;18.926;2023-04-23T04:15:18;97815.78;;;12.42;46.57
39487;BME280;25173;50.430;18.926;2023-04-23T04:18:20;97812.97;;;12.47;46.55
39487;BME280;25173;50.430;18.926;2023-04-23T04:21:20;97817.25;;;12.53;46.49
39487;BME280;25173;50.430;18.926;2023-04-23T04:24:21;97819.84;;;12.63;46.43
39487;BME280;25173;50.430;18.926;2023-04-23T04:27:24;97811.50;;;12.73;46.33
39487;BME280;25173;50.430;18.926;2023-04-23T04:30:25;97812.25;;;12.79;46.30
39487;BME280;25173;50.430;18.926;2023-04-23T04:33:29;97817.63;;;12.84;46.28
39487;BME280;25173;50.430;18.926;2023-04-23T04:36:30;97818.88;;;12.92;46.19
39487;BME280;25173;50.430;18.926;2023-04-23T04:39:31;97810.00;;;13.00;46.14
39487;BME280;25173;50.430;18.926;2023-04-23T04:42:32;97815.88;;;13.07;46.13
39487;BME280;25173;50.430;18.926;2023-04-23T04:45:32;97822.06;;;13.12;46.18
39487;BME280;25173;50.430;18.926;2023-04-23T04:48:33;97817.06;;;13.19;46.10
39487;BME280;25173;50.430;18.926;2023-04-23T04:51:35;97820.44;;;13.30;46.09
39487;BME280;25173;50.430;18.926;2023-04-23T04:54:36;97827.88;;;13.43;45.79
39487;BME280;25173;50.430;18.926;2023-04-23T04:57:37;97828.22;;;13.55;45.95
39487;BME280;25173;50.430;18.926;2023-04-23T05:00:39;97830.75;;;13.66;45.90
39487;BME280;25173;50.430;18.926;2023-04-23T05:04:00;97827.31;;;13.74;45.86
39487;BME280;25173;50.430;18.926;2023-04-23T05:07:03;97826.03;;;13.85;45.62
39487;BME280;25173;50.430;18.926;2023-04-23T05:10:04;97826.31;;;13.97;45.33
39487;BME280;25173;50.430;18.926;2023-04-23T05:13:05;97822.25;;;14.08;45.14
39487;BME280;25173;50.430;18.926;2023-04-23T05:16:06;97822.47;;;14.12;45.07
39487;BME280;25173;50.430;18.926;2023-04-23T05:19:08;97813.53;;;14.20;45.18
39487;BME280;25173;50.430;18.926;2023-04-23T05:22:09;97826.22;;;14.29;45.14
39487;BME280;25173;50.430;18.926;2023-04-23T05:25:10;97831.28;;;14.36;44.99
39487;BME280;25173;50.430;18.926;2023-04-23T05:28:11;97816.06;;;14.44;45.08
39487;BME280;25173;50.430;18.926;2023-04-23T05:31:12;97818.91;;;14.52;44.89
39487;BME280;25173;50.430;18.926;2023-04-23T05:34:14;97819.97;;;14.65;44.92
39487;BME280;25173;50.430;18.926;2023-04-23T05:37:15;97815.88;;;14.76;44.73
39487;BME280;25173;50.430;18.926;2023-04-23T05:40:16;97825.50;;;14.87;44.68
39487;BME280;25173;50.430;18.926;2023-04-23T05:43:16;97822.50;;;14.97;44.62
39487;BME280;25173;50.430;18.926;2023-04-23T05:46:19;97823.38;;;15.06;44.78
39487;BME280;25173;50.430;18.926;2023-04-23T05:49:27;97816.41;;;15.23;44.68
39487;BME280;25173;50.430;18.926;2023-04-23T05:52:27;97817.00;;;15.42;44.82
39487;BME280;25173;50.430;18.926;2023-04-23T05:55:30;97822.63;;;15.59;44.50
39487;BME280;25173;50.430;18.926;2023-04-23T05:58:31;97817.22;;;15.76;44.26
39487;BME280;25173;50.430;18.926;2023-04-23T06:01:31;97817.13;;;15.90;44.39
39487;BME280;25173;50.430;18.926;2023-04-23T06:04:32;97824.13;;;16.05;44.24
39487;BME280;25173;50.430;18.926;2023-04-23T06:07:34;97818.34;;;16.15;44.00
39487;BME280;25173;50.430;18.926;2023-04-23T06:11:10;97816.28;;;16.29;44.10
39487;BME280;25173;50.430;18.926;2023-04-23T06:14:10;97803.84;;;16.40;43.71
39487;BME280;25173;50.430;18.926;2023-04-23T06:17:11;97815.81;;;16.53;43.82
39487;BME280;25173;50.430;18.926;2023-04-23T06:20:11;97822.50;;;16.60;43.46
39487;BME280;25173;50.430;18.926;2023-04-23T06:23:12;97819.44;;;16.71;43.57
39487;BME280;25173;50.430;18.926;2023-04-23T06:26:13;97817.53;;;16.80;43.42
39487;BME280;25173;50.430;18.926;2023-04-23T06:29:14;97819.94;;;16.90;43.40
39487;BME280;25173;50.430;18.926;2023-04-23T06:32:25;97817.03;;;16.95;43.70
39487;BME280;25173;50.430;18.926;2023-04-23T06:35:26;97819.44;;;17.05;43.55
39487;BME280;25173;50.430;18.926;2023-04-23T06:38:26;97813.78;;;17.10;43.25
39487;BME280;25173;50.430;18.926;2023-04-23T06:41:27;97812.16;;;17.18;43.08
39487;BME280;25173;50.430;18.926;2023-04-23T06:44:42;97814.09;;;17.26;43.21
39487;BME280;25173;50.430;18.926;2023-04-23T06:47:43;97803.53;;;17.36;43.56
39487;BME280;25173;50.430;18.926;2023-04-23T06:50:44;97812.41;;;17.51;43.63
39487;BME280;25173;50.430;18.926;2023-04-23T06:53:45;97797.66;;;17.64;43.51
39487;BME280;25173;50.430;18.926;2023-04-23T06:56:46;97802.19;;;17.77;42.93
39487;BME280;25173;50.430;18.926;2023-04-23T06:59:47;97798.06;;;17.92;43.06
39487;BME280;25173;50.430;18.926;2023-04-23T07:02:49;97799.47;;;18.06;42.88
39487;BME280;25173;50.430;18.926;2023-04-23T07:05:49;97801.66;;;18.21;43.17
39487;BME280;25173;50.430;18.926;2023-04-23T07:08:50;97794.47;;;18.29;42.89
39487;BME280;25173;50.430;18.926;2023-04-23T07:11:51;97790.50;;;18.39;42.45
39487;BME280;25173;50.430;18.926;2023-04-23T07:14:51;97792.69;;;18.54;42.74
39487;BME280;25173;50.430;18.926;2023-04-23T07:17:53;97798.78;;;18.68;41.42
39487;BME280;25173;50.430;18.926;2023-04-23T07:20:56;97796.09;;;18.80;41.69
39487;BME280;25173;50.430;18.926;2023-04-23T07:24:06;97795.69;;;18.90;40.97
39487;BME280;25173;50.430;18.926;2023-04-23T07:27:13;97794.47;;;19.00;40.93
39487;BME280;25173;50.430;18.926;2023-04-23T07:30:17;97796.63;;;19.15;40.76
39487;BME280;25173;50.430;18.926;2023-04-23T07:33:18;97795.84;;;19.27;40.75
39487;BME280;25173;50.430;18.926;2023-04-23T07:36:19;97796.56;;;19.36;39.95
39487;BME280;25173;50.430;18.926;2023-04-23T07:39:20;97790.63;;;19.46;39.65
39487;BME280;25173;50.430;18.926;2023-04-23T07:42:21;97795.28;;;19.54;39.66
39487;BME280;25173;50.430;18.926;2023-04-23T07:45:21;97796.78;;;19.64;39.63
39487;BME280;25173;50.430;18.926;2023-04-23T07:48:22;97794.41;;;19.74;39.34
39487;BME280;25173;50.430;18.926;2023-04-23T07:51:22;97788.06;;;19.86;38.73
39487;BME280;25173;50.430;18.926;2023-04-23T07:54:25;97783.81;;;20.01;38.58
39487;BME280;25173;50.430;18.926;2023-04-23T07:57:26;97785.81;;;20.12;38.49
39487;BME280;25173;50.430;18.926;2023-04-23T08:00:27;97779.00;;;20.22;38.49
39487;BME280;25173;50.430;18.926;2023-04-23T08:03:27;97774.84;;;20.28;38.00
39487;BME280;25173;50.430;18.926;2023-04-23T08:06:28;97774.78;;;20.37;38.52
39487;BME280;25173;50.430;18.926;2023-04-23T08:09:34;97766.31;;;20.45;38.92
39487;BME280;25173;50.430;18.926;2023-04-23T08:12:34;97766.66;;;20.56;38.06
39487;BME280;25173;50.430;18.926;2023-04-23T08:15:35;97767.47;;;20.57;36.96
39487;BME280;25173;50.430;18.926;2023-04-23T08:18:36;97761.00;;;20.65;37.59
39487;BME280;25173;50.430;18.926;2023-04-23T08:21:37;97755.41;;;20.77;37.86
39487;BME280;25173;50.430;18.926;2023-04-23T08:24:38;97749.84;;;20.89;37.20
39487;BME280;25173;50.430;18.926;2023-04-23T08:27:38;97755.59;;;20.96;36.79
39487;BME280;25173;50.430;18.926;2023-04-23T08:30:39;97755.69;;;21.00;36.34
39487;BME280;25173;50.430;18.926;2023-04-23T08:33:39;97747.59;;;21.07;36.51
39487;BME280;25173;50.430;18.926;2023-04-23T08:36:40;97757.25;;;21.13;35.67
39487;BME280;25173;50.430;18.926;2023-04-23T08:39:41;97750.19;;;21.15;35.76
39487;BME280;25173;50.430;18.926;2023-04-23T08:42:46;97747.78;;;21.26;35.54
39487;BME280;25173;50.430;18.926;2023-04-23T08:45:48;97738.28;;;21.27;35.57
39487;BME280;25173;50.430;18.926;2023-04-23T08:48:51;97739.28;;;21.35;34.79
39487;BME280;25173;50.430;18.926;2023-04-23T08:51:53;97741.69;;;21.36;35.12
39487;BME280;25173;50.430;18.926;2023-04-23T08:54:58;97749.38;;;21.43;34.88
39487;BME280;25173;50.430;18.926;2023-04-23T08:58:00;97738.31;;;21.43;35.16
39487;BME280;25173;50.430;18.926;2023-04-23T09:01:02;97740.09;;;21.51;34.73
39487;BME280;25173;50.430;18.926;2023-04-23T09:04:03;97730.38;;;21.57;35.18
39487;BME280;25173;50.430;18.926;2023-04-23T09:07:04;97726.09;;;21.59;34.57
39487;BME280;25173;50.430;18.926;2023-04-23T09:10:11;97727.88;;;21.67;35.28
39487;BME280;25173;50.430;18.926;2023-04-23T09:13:12;97728.88;;;21.75;34.46
39487;BME280;25173;50.430;18.926;2023-04-23T09:16:13;97733.72;;;21.78;34.02
39487;BME280;25173;50.430;18.926;2023-04-23T09:19:14;97728.16;;;21.78;33.52
39487;BME280;25173;50.430;18.926;2023-04-23T09:22:15;97720.63;;;21.79;33.72
39487;BME280;25173;50.430;18.926;2023-04-23T09:25:18;97728.75;;;21.87;33.45
39487;BME280;25173;50.430;18.926;2023-04-23T09:28:19;97709.09;;;21.92;33.84
39487;BME280;25173;50.430;18.926;2023-04-23T09:31:21;97718.59;;;22.07;34.13
39487;BME280;25173;50.430;18.926;2023-04-23T09:34:24;97714.03;;;22.15;33.13
39487;BME280;25173;50.430;18.926;2023-04-23T09:37:25;97708.72;;;22.10;32.87
39487;BME280;25173;50.430;18.926;2023-04-23T09:40:26;97720.00;;;22.17;33.47
39487;BME280;25173;50.430;18.926;2023-04-23T09:43:29;97708.63;;;22.22;32.98
39487;BME280;25173;50.430;18.926;2023-04-23T09:46:37;97706.84;;;22.29;33.31
39487;BME280;25173;50.430;18.926;2023-04-23T09:49:48;97704.28;;;22.40;32.76
39487;BME280;25173;50.430;18.926;2023-04-23T09:52:55;97693.63;;;22.42;33.18
39487;BME280;25173;50.430;18.926;2023-04-23T09:55:56;97688.94;;;22.46;33.23
39487;BME280;25173;50.430;18.926;2023-04-23T09:58:57;97694.94;;;22.48;33.16
39487;BME280;25173;50.430;18.926;2023-04-23T10:02:01;97699.34;;;22.49;33.10
39487;BME280;25173;50.430;18.926;2023-04-23T10:05:13;97686.63;;;22.48;32.97
39487;BME280;25173;50.430;18.926;2023-04-23T10:08:14;97683.94;;;22.52;32.66
39487;BME280;25173;50.430;18.926;2023-04-23T10:11:15;97675.75;;;22.59;33.39
39487;BME280;25173;50.430;18.926;2023-04-23T10:14:16;97675.97;;;22.69;33.64
39487;BME280;25173;50.430;18.926;2023-04-23T10:17:17;97672.56;;;22.76;32.91
39487;BME280;25173;50.430;18.926;2023-04-23T10:20:19;97672.28;;;22.81;32.72
39487;BME280;25173;50.430;18.926;2023-04-23T10:23:22;97669.28;;;22.90;33.22
39487;BME280;25173;50.430;18.926;2023-04-23T10:26:24;97673.91;;;23.05;33.02
39487;BME280;25173;50.430;18.926;2023-04-23T10:29:27;97672.88;;;23.13;32.54
39487;BME280;25173;50.430;18.926;2023-04-23T10:32:29;97659.00;;;23.13;32.42
39487;BME280;25173;50.430;18.926;2023-04-23T10:35:32;97665.34;;;23.13;32.22
39487;BME280;25173;50.430;18.926;2023-04-23T10:38:34;97650.97;;;23.08;32.02
39487;BME280;25173;50.430;18.926;2023-04-23T10:41:40;97651.84;;;23.12;31.90
39487;BME280;25173;50.430;18.926;2023-04-23T10:44:42;97645.66;;;23.22;31.73
39487;BME280;25173;50.430;18.926;2023-04-23T10:47:43;97645.13;;;23.36;32.11
39487;BME280;25173;50.430;18.926;2023-04-23T10:50:45;97641.81;;;23.49;31.85
39487;BME280;25173;50.430;18.926;2023-04-23T10:53:46;97637.16;;;23.57;31.99
39487;BME280;25173;50.430;18.926;2023-04-23T10:56:57;97641.78;;;23.72;32.13
39487;BME280;25173;50.430;18.926;2023-04-23T11:00:00;97633.25;;;23.84;31.88
39487;BME280;25173;50.430;18.926;2023-04-23T11:03:01;97645.31;;;23.95;31.86
39487;BME280;25173;50.430;18.926;2023-04-23T11:06:03;97632.75;;;24.05;31.75
39487;BME280;25173;50.430;18.926;2023-04-23T11:09:26;97632.38;;;24.07;31.55
39487;BME280;25173;50.430;18.926;2023-04-23T11:15:29;97633.22;;;24.11;31.70
39487;BME280;25173;50.430;18.926;2023-04-23T11:18:57;97627.19;;;24.05;30.62
39487;BME280;25173;50.430;18.926;2023-04-23T11:22:05;97630.66;;;24.21;31.23
39487;BME280;25173;50.430;18.926;2023-04-23T11:25:09;97627.78;;;24.48;31.43
39487;BME280;25173;50.430;18.926;2023-04-23T11:28:11;97625.69;;;24.67;31.04
39487;BME280;25173;50.430;18.926;2023-04-23T11:31:13;97629.19;;;24.94;30.89
39487;BME280;25173;50.430;18.926;2023-04-23T11:34:15;97615.59;;;25.26;30.65
39487;BME280;25173;50.430;18.926;2023-04-23T11:37:17;97608.41;;;25.69;31.60
39487;BME280;25173;50.430;18.926;2023-04-23T11:40:18;97611.06;;;26.10;30.50
39487;BME280;25173;50.430;18.926;2023-04-23T11:43:19;97617.19;;;26.33;29.93
39487;BME280;25173;50.430;18.926;2023-04-23T11:46:20;97620.03;;;26.40;29.41
39487;BME280;25173;50.430;18.926;2023-04-23T11:49:21;97607.63;;;26.34;28.99
39487;BME280;25173;50.430;18.926;2023-04-23T11:52:21;97608.75;;;26.22;29.24
39487;BME280;25173;50.430;18.926;2023-04-23T11:55:22;97611.06;;;26.10;29.29
39487;BME280;25173;50.430;18.926;2023-04-23T11:58:23;97608.22;;;25.99;29.56
39487;BME280;25173;50.430;18.926;2023-04-23T12:01:24;97601.44;;;26.04;29.43
39487;BME280;25173;50.430;18.926;2023-04-23T12:04:26;97597.47;;;26.05;29.12
39487;BME280;25173;50.430;18.926;2023-04-23T12:07:33;97599.75;;;25.85;28.66
39487;BME280;25173;50.430;18.926;2023-04-23T12:10:50;97601.66;;;25.70;28.83
39487;BME280;25173;50.430;18.926;2023-04-23T12:13:51;97600.75;;;25.59;29.24
39487;BME280;25173;50.430;18.926;2023-04-23T12:16:53;97600.22;;;25.50;29.33
39487;BME280;25173;50.430;18.926;2023-04-23T12:19:55;97608.34;;;25.62;29.88
39487;BME280;25173;50.430;18.926;2023-04-23T12:23:03;97595.84;;;25.97;29.44
39487;BME280;25173;50.430;18.926;2023-04-23T12:26:08;97578.53;;;26.35;29.88
39487;BME280;25173;50.430;18.926;2023-04-23T12:29:12;97585.84;;;26.75;29.18
39487;BME280;25173;50.430;18.926;2023-04-23T12:32:14;97587.97;;;27.10;28.48
39487;BME280;25173;50.430;18.926;2023-04-23T12:35:14;97587.59;;;27.43;28.24
39487;BME280;25173;50.430;18.926;2023-04-23T12:41:25;97584.75;;;28.04;27.84
39487;BME280;25173;50.430;18.926;2023-04-23T12:44:25;97570.66;;;28.39;27.16
39487;BME280;25173;50.430;18.926;2023-04-23T12:47:26;97566.63;;;28.51;26.83
39487;BME280;25173;50.430;18.926;2023-04-23T12:50:26;97566.59;;;28.54;27.30
39487;BME280;25173;50.430;18.926;2023-04-23T12:53:27;97559.78;;;28.59;26.93
39487;BME280;25173;50.430;18.926;2023-04-23T12:56:28;97566.06;;;28.88;27.02
39487;BME280;25173;50.430;18.926;2023-04-23T12:59:29;97569.59;;;28.99;26.57
39487;BME280;25173;50.430;18.926;2023-04-23T13:02:30;97555.31;;;28.69;26.21
39487;BME280;25173;50.430;18.926;2023-04-23T13:05:30;97556.31;;;28.30;26.42
39487;BME280;25173;50.430;18.926;2023-04-23T13:08:31;97560.00;;;27.92;26.90
39487;BME280;25173;50.430;18.926;2023-04-23T13:11:32;97552.03;;;27.65;26.86
39487;BME280;25173;50.430;18.926;2023-04-23T13:14:32;97548.03;;;27.38;27.14
39487;BME280;25173;50.430;18.926;2023-04-23T13:17:34;97541.22;;;27.07;27.64
39487;BME280;25173;50.430;18.926;2023-04-23T13:20:34;97529.66;;;27.12;28.30
39487;BME280;25173;50.430;18.926;2023-04-23T13:23:35;97544.03;;;27.03;27.92
39487;BME280;25173;50.430;18.926;2023-04-23T13:26:36;97536.03;;;27.09;27.84
39487;BME280;25173;50.430;18.926;2023-04-23T13:29:37;97542.03;;;27.39;27.75
39487;BME280;25173;50.430;18.926;2023-04-23T13:32:39;97545.63;;;27.43;27.54
39487;BME280;25173;50.430;18.926;2023-04-23T13:35:39;97540.06;;;27.26;27.38
39487;BME280;25173;50.430;18.926;2023-04-23T13:38:40;97536.44;;;26.97;27.52
39487;BME280;25173;50.430;18.926;2023-04-23T13:41:41;97534.38;;;26.80;27.49
39487;BME280;25173;50.430;18.926;2023-04-23T13:44:41;97528.03;;;26.90;27.73
39487;BME280;25173;50.430;18.926;2023-04-23T13:47:42;97514.88;;;27.01;27.86
39487;BME280;25173;50.430;18.926;2023-04-23T13:50:43;97514.06;;;27.22;27.80
39487;BME280;25173;50.430;18.926;2023-04-23T13:53:44;97508.84;;;27.84;27.52
39487;BME280;25173;50.430;18.926;2023-04-23T13:56:45;97512.59;;;28.50;26.90
39487;BME280;25173;50.430;18.926;2023-04-23T13:59:45;97508.69;;;29.00;26.59
39487;BME280;25173;50.430;18.926;2023-04-23T14:02:46;97498.53;;;29.64;26.39
39487;BME280;25173;50.430;18.926;2023-04-23T14:05:46;97502.00;;;30.17;26.00
39487;BME280;25173;50.430;18.926;2023-04-23T14:08:47;97502.81;;;30.78;25.15
39487;BME280;25173;50.430;18.926;2023-04-23T14:11:48;97496.94;;;31.22;24.98
39487;BME280;25173;50.430;18.926;2023-04-23T14:14:48;97497.53;;;31.57;24.62
39487;BME280;25173;50.430;18.926;2023-04-23T14:17:49;97500.34;;;31.57;24.43
39487;BME280;25173;50.430;18.926;2023-04-23T14:20:50;97495.00;;;31.19;24.76
39487;BME280;25173;50.430;18.926;2023-04-23T14:26:54;97493.94;;;31.33;24.51
39487;BME280;25173;50.430;18.926;2023-04-23T14:32:55;97489.72;;;31.45;24.44
39487;BME280;25173;50.430;18.926;2023-04-23T14:35:56;97491.91;;;31.10;24.65
39487;BME280;25173;50.430;18.926;2023-04-23T14:38:56;97499.97;;;30.81;24.90
39487;BME280;25173;50.430;18.926;2023-04-23T14:42:01;97492.25;;;30.28;23.91
39487;BME280;25173;50.430;18.926;2023-04-23T14:45:02;97490.34;;;29.81;24.76
39487;BME280;25173;50.430;18.926;2023-04-23T14:48:03;97496.28;;;29.01;25.78
39487;BME280;25173;50.430;18.926;2023-04-23T14:51:03;97491.09;;;28.26;26.61
39487;BME280;25173;50.430;18.926;2023-04-23T14:54:04;97505.66;;;27.64;27.09
39487;BME280;25173;50.430;18.926;2023-04-23T14:57:04;97506.88;;;26.92;27.45
39487;BME280;25173;50.430;18.926;2023-04-23T15:00:06;97493.19;;;26.45;27.86
39487;BME280;25173;50.430;18.926;2023-04-23T15:03:07;97495.56;;;26.46;28.10
39487;BME280;25173;50.430;18.926;2023-04-23T15:06:10;97494.47;;;26.86;28.38
39487;BME280;25173;50.430;18.926;2023-04-23T15:09:10;97491.28;;;27.37;27.56
39487;BME280;25173;50.430;18.926;2023-04-23T15:15:49;97488.44;;;29.29;26.34
39487;BME280;25173;50.430;18.926;2023-04-23T15:18:50;97473.66;;;29.66;26.15
39487;BME280;25173;50.430;18.926;2023-04-23T15:21:50;97479.56;;;29.38;25.30
39487;BME280;25173;50.430;18.926;2023-04-23T15:24:51;97469.16;;;29.39;25.80
39487;BME280;25173;50.430;18.926;2023-04-23T15:27:51;97487.50;;;29.47;25.34
39487;BME280;25173;50.430;18.926;2023-04-23T15:30:57;97477.50;;;29.83;24.38
39487;BME280;25173;50.430;18.926;2023-04-23T15:33:57;97476.72;;;30.17;25.62
39487;BME280;25173;50.430;18.926;2023-04-23T15:36:58;97483.00;;;30.28;24.77
39487;BME280;25173;50.430;18.926;2023-04-23T15:39:59;97473.09;;;30.16;24.29
39487;BME280;25173;50.430;18.926;2023-04-23T15:42:59;97470.78;;;30.11;24.42
39487;BME280;25173;50.430;18.926;2023-04-23T15:46:00;97468.03;;;30.38;24.66
39487;BME280;25173;50.430;18.926;2023-04-23T15:49:00;97470.09;;;30.64;23.61
39487;BME280;25173;50.430;18.926;2023-04-23T15:52:03;97475.28;;;30.35;23.63
39487;BME280;25173;50.430;18.926;2023-04-23T15:55:04;97463.84;;;30.19;23.92
39487;BME280;25173;50.430;18.926;2023-04-23T15:58:05;97462.84;;;30.67;23.85
39487;BME280;25173;50.430;18.926;2023-04-23T16:01:06;97461.72;;;30.88;23.25
39487;BME280;25173;50.430;18.926;2023-04-23T16:04:08;97460.41;;;30.92;22.53
39487;BME280;25173;50.430;18.926;2023-04-23T16:07:09;97457.34;;;30.56;23.22